Aviation Digital Data Service (ADDS)

Output produced by METARs form (1729 UTC 21 September 2019)
found at http://aviationweather.gov/metar/data/
 
KSVH 211715Z AUTO 16006KT 10SM CLR 29/16 A3028 RMK AO2 T02890158
KSVH 211655Z AUTO 20003KT 10SM CLR 28/16 A3029 RMK AO2 T02840156
KSVH 211635Z AUTO 21005KT 10SM CLR 28/16 A3029 RMK AO2 T02790156